^^
Station Historical Data
Daily Summary for October 25, 2017 Units:  English    Metric   Both
« Previous Day
Next Day »
Daily Weekly Monthly Yearly Custom
  High: Low: Average:
Temperature: 65.5 °F 54.7 °F 59.7 °F
Dew Point: 64.6 °F 41.8 °F 51.8 °F
Humidity: 98% 54% 76%
Wind Speed: 2.0mph 0.0mph 0.1mph
Wind Gust: 8.0mph - -
Wind- - South
Pressure: 29.75 in 29.67 in -
Precipitation: 0.00 in    
Historical Graphs
 
 
Tabular Data for October 25, 2017
Time Temperature Dew Point Pressure Wind Wind Speed Wind Gust Humidity Rainfall Rate (Hourly) Conditions
00:09 65.3 °F 64.4 °F 29.74 in Calm   1.0 mph 97% 0.00 in OVC
00:19 65.3 °F 64.4 °F 29.74 in Calm   2.0 mph 97% 0.00 in OVC
00:29 65.3 °F 64.4 °F 29.74 in Calm   2.0 mph 97% 0.00 in OVC
00:39 65.4 °F 64.5 °F 29.73 in Calm   3.0 mph 97% 0.00 in OVC
00:49 65.5 °F 64.6 °F 29.73 in Calm   1.0 mph 97% 0.00 in OVC
01:00 65.5 °F 64.6 °F 29.73 in Calm   1.0 mph 97% 0.00 in OVC
01:10 65.5 °F 64.6 °F 29.73 in Calm   1.0 mph 97% 0.00 in OVC
01:19 65.5 °F 64.6 °F 29.73 in Calm   2.0 mph 97% 0.00 in OVC
01:29 65.5 °F 64.6 °F 29.73 in Calm   1.0 mph 97% 0.00 in OVC
01:39 65.3 °F 64.4 °F 29.74 in Calm   3.0 mph 97% 0.00 in OVC
01:49 65.0 °F 64.1 °F 29.74 in SW 1.0 mph 3.0 mph 97% 0.00 in OVC
01:59 64.8 °F 63.9 °F 29.75 in Calm   3.0 mph 97% 0.00 in OVC
02:09 64.7 °F 63.8 °F 29.75 in Calm   2.0 mph 97% 0.00 in OVC
02:19 64.3 °F 63.4 °F 29.75 in SW 1.0 mph 4.0 mph 97% 0.00 in OVC
02:29 64.1 °F 63.2 °F 29.75 in South 1.0 mph 2.0 mph 97% 0.00 in OVC
02:39 63.9 °F 63.0 °F 29.75 in Calm   2.0 mph 97% 0.00 in OVC
02:49 63.5 °F 62.6 °F 29.74 in Calm     97% 0.00 in OVC
02:59 63.0 °F 62.1 °F 29.74 in Calm     97% 0.00 in OVC
03:09 62.5 °F 61.3 °F 29.74 in Calm     96% 0.00 in OVC
03:19 61.9 °F 60.7 °F 29.74 in Calm     96% 0.00 in OVC
03:29 61.6 °F 60.7 °F 29.73 in Calm     97% 0.00 in OVC
03:39 61.1 °F 60.2 °F 29.72 in Calm     97% 0.00 in OVC
03:49 61.0 °F 60.1 °F 29.72 in Calm     97% 0.00 in OVC
04:09 60.2 °F 59.3 °F 29.72 in Calm     97% 0.00 in CLR
04:19 61.0 °F 60.4 °F 29.72 in Calm   2.0 mph 98% 0.00 in CLR
04:29 61.8 °F 61.2 °F 29.72 in Calm   1.0 mph 98% 0.00 in CLR
04:40 62.1 °F 61.5 °F 29.72 in Calm   3.0 mph 98% 0.00 in CLR
04:49 62.0 °F 61.4 °F 29.73 in Calm   4.0 mph 98% 0.00 in CLR
04:59 61.4 °F 60.6 °F 29.74 in Calm   3.0 mph 97% 0.00 in CLR
05:10 60.7 °F 59.8 °F 29.74 in Calm     97% 0.00 in BKN
05:19 59.6 °F 58.4 °F 29.74 in Calm   2.0 mph 96% 0.00 in BKN
05:29 58.5 °F 57.3 °F 29.75 in Calm   3.0 mph 96% 0.00 in BKN
05:39 57.8 °F 56.4 °F 29.75 in Calm   5.0 mph 95% 0.00 in BKN
05:49 57.6 °F 55.0 °F 29.75 in Calm   2.0 mph 91% 0.00 in BKN
06:00 57.5 °F 53.7 °F 29.74 in Calm   1.0 mph 87% 0.00 in BKN
06:09 57.2 °F 53.1 °F 29.73 in Calm   2.0 mph 86% 0.00 in FEW
06:19 57.3 °F 51.5 °F 29.73 in Calm   2.0 mph 81% 0.00 in FEW
06:30 56.9 °F 51.5 °F 29.73 in Calm   1.0 mph 82% 0.00 in FEW
06:39 57.2 °F 51.4 °F 29.73 in Calm   4.0 mph 81% 0.00 in FEW
06:49 57.1 °F 49.9 °F 29.73 in Calm   5.0 mph 77% 0.00 in FEW
06:59 57.2 °F 49.4 °F 29.72 in Calm   4.0 mph 75% 0.00 in FEW
07:10 57.1 °F 49.6 °F 29.73 in Calm   2.0 mph 76% 0.00 in CLR
07:19 56.9 °F 49.1 °F 29.74 in Calm   2.0 mph 75% 0.00 in CLR
07:29 56.7 °F 48.9 °F 29.74 in Calm   1.0 mph 75% 0.00 in CLR
07:39 56.8 °F 48.6 °F 29.74 in Calm   3.0 mph 74% 0.00 in CLR
07:49 56.5 °F 48.3 °F 29.74 in Calm   2.0 mph 74% 0.00 in CLR
07:59 56.8 °F 47.9 °F 29.74 in Calm   2.0 mph 72% 0.00 in CLR
08:09 56.7 °F 47.0 °F 29.73 in Calm   4.0 mph 70% 0.00 in FEW
08:19 56.8 °F 47.1 °F 29.73 in Calm   3.0 mph 70% 0.00 in FEW
08:29 56.9 °F 47.2 °F 29.73 in Calm   2.0 mph 70% 0.00 in FEW
08:39 57.1 °F 47.0 °F 29.73 in Calm   2.0 mph 69% 0.00 in FEW
08:49 57.5 °F 47.1 °F 29.73 in Calm   4.0 mph 68% 0.00 in FEW
08:59 57.6 °F 47.8 °F 29.74 in Calm   2.0 mph 70% 0.00 in FEW
09:09 57.0 °F 48.1 °F 29.74 in Calm     72% 0.00 in FEW
09:19 56.7 °F 48.9 °F 29.74 in Calm     75% 0.00 in FEW
09:29 56.6 °F 49.5 °F 29.74 in Calm     77% 0.00 in FEW
09:39 56.3 °F 49.9 °F 29.74 in Calm     79% 0.00 in FEW
09:49 57.0 °F 49.5 °F 29.74 in Calm   1.0 mph 76% 0.00 in FEW
10:00 57.5 °F 52.4 °F 29.74 in Calm     83% 0.00 in FEW
10:09 57.8 °F 53.0 °F 29.74 in Calm   1.0 mph 84% 0.00 in SCT
10:19 57.8 °F 53.0 °F 29.74 in Calm   3.0 mph 84% 0.00 in SCT
10:30 58.2 °F 53.1 °F 29.74 in Calm   2.0 mph 83% 0.00 in SCT
10:39 58.6 °F 52.8 °F 29.74 in WSW 1.0 mph 2.0 mph 81% 0.00 in
11:00 60.0 °F 50.2 °F 29.74 in Calm   4.0 mph 70% 0.00 in SCT
11:10 59.9 °F 49.0 °F 29.74 in Calm   4.0 mph 67% 0.00 in BKN
11:19 60.0 °F 49.0 °F 29.73 in SW 1.0 mph 2.0 mph 67% 0.00 in
11:30 60.3 °F 48.9 °F 29.73 in WNW 2.0 mph 4.0 mph 66% 0.00 in BKN
11:39 60.3 °F 49.3 °F 29.73 in WNW 1.0 mph 2.0 mph 67% 0.00 in BKN
11:49 60.0 °F 49.0 °F 29.73 in NW 1.0 mph 7.0 mph 67% 0.00 in BKN
11:59 60.0 °F 49.0 °F 29.73 in Calm   3.0 mph 67% 0.00 in BKN
12:09 59.9 °F 48.9 °F 29.73 in North 1.0 mph 6.0 mph 67% 0.00 in BKN
12:20 60.0 °F 48.6 °F 29.73 in NE 1.0 mph 2.0 mph 66% 0.00 in BKN
12:29 60.2 °F 48.4 °F 29.72 in Calm   2.0 mph 65% 0.00 in BKN
12:39 60.4 °F 48.2 °F 29.72 in Calm   2.0 mph 64% 0.00 in BKN
12:49 60.6 °F 46.6 °F 29.71 in NNW 1.0 mph 2.0 mph 60% 0.00 in
12:50 60.6 °F 47.1 °F 29.71 in Calm   2.0 mph 61% 0.00 in BKN
12:59 60.5 °F 46.1 °F 29.71 in Calm   2.0 mph 59% 0.00 in BKN
13:09 60.4 °F 45.1 °F 29.70 in Calm   3.0 mph 57% 0.00 in
13:19 60.9 °F 46.0 °F 29.70 in Calm   1.0 mph 58% 0.00 in
13:29 61.1 °F 44.3 °F 29.69 in North 1.0 mph 6.0 mph 54% 0.00 in
13:30 61.1 °F 44.3 °F 29.69 in North 1.0 mph 6.0 mph 54% 0.00 in BKN
13:39 61.4 °F 45.1 °F 29.69 in Calm   4.0 mph 55% 0.00 in BKN
13:49 61.8 °F 45.9 °F 29.68 in Calm   4.0 mph 56% 0.00 in
13:50 61.8 °F 45.9 °F 29.68 in Calm   4.0 mph 56% 0.00 in BKN
13:59 62.0 °F 46.6 °F 29.68 in Calm   2.0 mph 57% 0.00 in BKN
14:09 62.5 °F 46.6 °F 29.68 in Calm   2.0 mph 56% 0.00 in BKN
14:19 62.8 °F 46.9 °F 29.69 in NE 1.0 mph 3.0 mph 56% 0.00 in
14:20 62.8 °F 46.9 °F 29.69 in Calm   3.0 mph 56% 0.00 in BKN
14:29 62.7 °F 46.8 °F 29.68 in Calm   4.0 mph 56% 0.00 in
14:30 62.7 °F 46.8 °F 29.68 in Calm   4.0 mph 56% 0.00 in BKN
14:39 62.7 °F 46.3 °F 29.68 in Calm   3.0 mph 55% 0.00 in BKN
14:49 63.0 °F 46.6 °F 29.69 in Calm   1.0 mph 55% 0.00 in BKN
14:59 63.0 °F 46.6 °F 29.69 in Calm   1.0 mph 55% 0.00 in BKN
15:09 63.3 °F 47.3 °F 29.69 in Calm   1.0 mph 56% 0.00 in
15:10 63.3 °F 47.3 °F 29.69 in Calm     56% 0.00 in BKN
15:19 62.9 °F 47.0 °F 29.69 in Calm   2.0 mph 56% 0.00 in BKN
15:29 63.0 °F 47.5 °F 29.70 in Calm     57% 0.00 in BKN
15:39 63.1 °F 47.6 °F 29.69 in Calm   1.0 mph 57% 0.00 in BKN
15:49 62.7 °F 49.1 °F 29.69 in Calm     61% 0.00 in
15:50 62.7 °F 49.1 °F 29.69 in Calm     61% 0.00 in BKN
15:59 62.4 °F 47.9 °F 29.68 in Calm     59% 0.00 in BKN
16:09 62.2 °F 48.2 °F 29.68 in Calm     60% 0.00 in BKN
16:19 62.1 °F 48.9 °F 29.68 in Calm     62% 0.00 in BKN
16:29 62.1 °F 49.8 °F 29.69 in Calm     64% 0.00 in BKN
16:39 61.7 °F 49.9 °F 29.69 in Calm     65% 0.00 in BKN
16:49 61.4 °F 51.1 °F 29.68 in Calm   1.0 mph 69% 0.00 in BKN
16:59 60.8 °F 50.6 °F 29.68 in Calm     69% 0.00 in BKN
17:09 60.3 °F 49.7 °F 29.68 in Calm     68% 0.00 in
17:19 60.1 °F 50.7 °F 29.69 in Calm     71% 0.00 in
17:20 60.1 °F 50.3 °F 29.69 in Calm     70% 0.00 in BKN
17:29 59.8 °F 51.1 °F 29.71 in Calm   1.0 mph 73% 0.00 in BKN
17:39 59.5 °F 51.9 °F 29.69 in Calm     76% 0.00 in
17:49 59.3 °F 50.3 °F 29.67 in Calm   1.0 mph 72% 0.00 in
17:59 59.3 °F 51.4 °F 29.69 in Calm     75% 0.00 in
18:20 58.1 °F 50.6 °F 29.69 in Calm     76% 0.00 in BKN
18:30 57.8 °F 49.9 °F 29.68 in Calm     75% 0.00 in BKN
18:39 57.8 °F 50.3 °F 29.68 in Calm     76% 0.00 in BKN
18:49 57.5 °F 51.3 °F 29.70 in Calm     80% 0.00 in BKN
18:59 57.2 °F 51.4 °F 29.70 in Calm     81% 0.00 in BKN
19:10 57.1 °F 51.7 °F 29.70 in Calm     82% 0.00 in BKN
19:19 57.3 °F 50.8 °F 29.69 in Calm     79% 0.00 in BKN
19:29 57.1 °F 51.3 °F 29.68 in Calm     81% 0.00 in
19:40 56.8 °F 50.4 °F 29.67 in Calm     79% 0.00 in BKN
19:49 56.9 °F 51.1 °F 29.68 in Calm     81% 0.00 in BKN
20:00 56.3 °F 50.2 °F 29.69 in Calm     80% 0.00 in BKN
20:09 55.8 °F 50.7 °F 29.69 in Calm     83% 0.00 in BKN
20:19 55.3 °F 50.5 °F 29.71 in Calm     84% 0.00 in BKN
20:30 55.2 °F 50.8 °F 29.71 in Calm     85% 0.00 in BKN
20:39 55.0 °F 50.6 °F 29.69 in Calm     85% 0.00 in BKN
20:49 55.2 °F 50.4 °F 29.70 in Calm     84% 0.00 in BKN
20:59 55.5 °F 50.7 °F 29.70 in Calm     84% 0.00 in BKN
21:09 55.9 °F 50.8 °F 29.68 in Calm     83% 0.00 in SCT
21:19 56.6 °F 51.2 °F 29.70 in Calm   1.0 mph 82% 0.00 in SCT
21:29 55.7 °F 51.5 °F 29.68 in Calm   1.0 mph 86% 0.00 in SCT
21:39 56.0 °F 51.9 °F 29.69 in Calm   1.0 mph 86% 0.00 in SCT
21:49 55.5 °F 51.7 °F 29.69 in Calm   1.0 mph 87% 0.00 in SCT
21:59 55.2 °F 51.7 °F 29.69 in Calm     88% 0.00 in SCT
22:09 54.9 °F 51.4 °F 29.70 in Calm     88% 0.00 in SCT
22:19 54.7 °F 51.5 °F 29.71 in Calm     89% 0.00 in SCT
22:29 55.7 °F 51.3 °F 29.71 in SW 1.0 mph 8.0 mph 85% 0.00 in SCT
22:39 56.5 °F 48.3 °F 29.71 in Calm   3.0 mph 74% 0.00 in SCT
22:49 56.8 °F 46.0 °F 29.71 in Calm   4.0 mph 67% 0.00 in SCT
22:59 57.1 °F 43.8 °F 29.72 in SSW 1.0 mph 5.0 mph 61% 0.00 in SCT
23:09 57.1 °F 42.9 °F 29.68 in NNE 1.0 mph 3.0 mph 59% 0.00 in CLR
23:19 57.0 °F 42.8 °F 29.68 in Calm   6.0 mph 59% 0.00 in CLR
23:29 56.9 °F 43.1 °F 29.69 in Calm   2.0 mph 60% 0.00 in CLR
23:39 56.6 °F 43.3 °F 29.69 in Calm   1.0 mph 61% 0.00 in CLR
23:49 56.5 °F 41.9 °F 29.68 in Calm   5.0 mph 58% 0.00 in CLR
23:59 56.4 °F 41.8 °F 29.69 in Calm   5.0 mph 58% 0.00 in CLR
TarryTown NY Weather
Compliments of Weather Underground - 1.75 mb